Kezdőlap
METAR-TAF:

METAR-TAF

Repülőterek :

Tennant Creek, Ausztrália

földrajzi szélesség: 19-38-04S, földrajzi hosszúság: 134-11-00E, magasság: 377 m

Jelenlegi meteorológiai megfigyelések

A jelentés 54 perccel ezelõtt készült, 06:00 UTC
Kelet-északkeleti szél 13 kt
Hőmérséklet 33°C
Páratartalom 8%
Légköri nyomás 1017 hPa
Látótávolság 10 km, vagy több

METAR: YTNK 180600Z AUTO 07013KT 9999 // NCD 33/M05 Q1017

Idő: 16:24 (06:54 UTC)

Előrejelzés

A jelentés 5 órával és 18 perccel ezelõtt készült, 01:36 UTC
Az előrejelzés 18-én 02 óra UTC és 18-én 14 óra UTC között érvényes
Keleti szél 16 kt széllökések: 26 kt
Látótávolság 10 km, vagy több
felhőtlen 1500 m magasságban, és nincs gomolyfelhõ
18-én 0800 órától UTC szerint
Keleti szél 8 kt
Látótávolság 10 km, vagy több
felhőtlen 1500 m magasságban, és nincs gomolyfelhõ

TAF: YTNK 180136Z 1802/1814 09016G26KT CAVOK FM180800 10008KT CAVOK

Meteorológiai megfigyelések és előrejelzések több, mint 4000 repülőtéren (METAR és TAF jelentéseket).

A térképen piros és sárga pontok jelzik az elérhető meteorológiai állomásokat.

Mozgassa az egeret a pont fölött, hogy megjelenjen az állomás neve.

Azután kattintson az időjárási megfigyelések és előrejelzések megtekintéséhez.

A térkép megváltoztatása: kattintson a fekete keresztel jelölt zöld gombra ráközelítéshez, a vonallal jelölt zöld gombra távolításhoz, vagy a zöld nyilakra a szomszédos térképek eléréséhez.


METAR-TAF: